sensor_id;sensor_type;location;lat;lon;timestamp;pressure;altitude;pressure_sealevel;temperature;humidity
59055;BME280;44845;51.444;7.460;2022-10-28T00:03:39;100080.78;;;16.82;70.61
59055;BME280;44845;51.444;7.460;2022-10-28T00:06:10;100076.31;;;16.84;70.36
59055;BME280;44845;51.444;7.460;2022-10-28T00:08:36;100078.13;;;16.83;70.47
59055;BME280;44845;51.444;7.460;2022-10-28T00:11:13;100071.00;;;16.85;70.29
59055;BME280;44845;51.444;7.460;2022-10-28T00:13:39;100078.06;;;16.85;70.34
59055;BME280;44845;51.444;7.460;2022-10-28T00:16:08;100075.41;;;16.85;70.35
59055;BME280;44845;51.444;7.460;2022-10-28T00:18:34;100071.75;;;16.89;70.13
59055;BME280;44845;51.444;7.460;2022-10-28T00:21:08;100069.00;;;16.92;70.05
59055;BME280;44845;51.444;7.460;2022-10-28T00:23:33;100069.81;;;16.94;69.33
59055;BME280;44845;51.444;7.460;2022-10-28T00:26:06;100061.16;;;16.89;69.48
59055;BME280;44845;51.444;7.460;2022-10-28T00:28:32;100058.66;;;16.84;69.78
59055;BME280;44845;51.444;7.460;2022-10-28T00:31:08;100055.19;;;16.82;69.29
59055;BME280;44845;51.444;7.460;2022-10-28T00:33:34;100060.47;;;16.82;69.04
59055;BME280;44845;51.444;7.460;2022-10-28T00:36:16;100061.16;;;16.89;68.58
59055;BME280;44845;51.444;7.460;2022-10-28T00:38:44;100056.81;;;16.86;69.05
59055;BME280;44845;51.444;7.460;2022-10-28T00:41:11;100057.78;;;16.84;69.22
59055;BME280;44845;51.444;7.460;2022-10-28T00:43:43;100046.34;;;16.83;69.05
59055;BME280;44845;51.444;7.460;2022-10-28T00:46:37;100051.56;;;16.85;68.78
59055;BME280;44845;51.444;7.460;2022-10-28T00:49:25;100050.66;;;16.86;68.12
59055;BME280;44845;51.444;7.460;2022-10-28T00:51:56;100048.94;;;16.85;68.13
59055;BME280;44845;51.444;7.460;2022-10-28T00:54:24;100041.66;;;16.92;66.98
59055;BME280;44845;51.444;7.460;2022-10-28T00:56:52;100039.88;;;16.92;66.82
59055;BME280;44845;51.444;7.460;2022-10-28T00:59:23;100032.66;;;16.97;67.73
59055;BME280;44845;51.444;7.460;2022-10-28T01:01:50;100032.34;;;17.07;67.41
59055;BME280;44845;51.444;7.460;2022-10-28T01:04:15;100028.16;;;16.99;67.81
59055;BME280;44845;51.444;7.460;2022-10-28T01:06:41;100030.91;;;16.96;67.56
59055;BME280;44845;51.444;7.460;2022-10-28T01:09:06;100021.97;;;17.00;66.61
59055;BME280;44845;51.444;7.460;2022-10-28T01:11:47;100015.78;;;17.00;67.18
59055;BME280;44845;51.444;7.460;2022-10-28T01:14:26;100019.25;;;17.02;67.60
59055;BME280;44845;51.444;7.460;2022-10-28T01:26:27;100001.44;;;17.07;67.89
59055;BME280;44845;51.444;7.460;2022-10-28T01:34:28;99993.72;;;16.99;67.84
59055;BME280;44845;51.444;7.460;2022-10-28T01:44:34;100004.41;;;16.96;68.02
59055;BME280;44845;51.444;7.460;2022-10-28T01:47:21;99999.03;;;16.99;68.02
59055;BME280;44845;51.444;7.460;2022-10-28T01:52:31;100015.81;;;16.98;67.83
59055;BME280;44845;51.444;7.460;2022-10-28T01:55:16;100023.78;;;16.98;68.26
59055;BME280;44845;51.444;7.460;2022-10-28T01:57:45;100019.41;;;16.97;68.18
59055;BME280;44845;51.444;7.460;2022-10-28T02:00:12;100017.78;;;16.93;67.94
59055;BME280;44845;51.444;7.460;2022-10-28T02:02:38;100009.84;;;16.93;68.32
59055;BME280;44845;51.444;7.460;2022-10-28T02:10:58;99982.81;;;17.09;66.28
59055;BME280;44845;51.444;7.460;2022-10-28T02:13:45;99990.88;;;17.06;66.00
59055;BME280;44845;51.444;7.460;2022-10-28T02:16:27;99989.88;;;17.10;66.04
59055;BME280;44845;51.444;7.460;2022-10-28T02:19:01;99989.97;;;17.07;65.57
59055;BME280;44845;51.444;7.460;2022-10-28T02:24:23;99976.50;;;17.13;65.65
59055;BME280;44845;51.444;7.460;2022-10-28T02:27:11;99985.56;;;17.06;66.39
59055;BME280;44845;51.444;7.460;2022-10-28T02:29:44;99980.31;;;17.04;66.25
59055;BME280;44845;51.444;7.460;2022-10-28T02:32:16;99989.09;;;17.06;66.27
59055;BME280;44845;51.444;7.460;2022-10-28T02:34:46;99981.94;;;17.08;66.24
59055;BME280;44845;51.444;7.460;2022-10-28T02:37:19;99975.75;;;17.09;66.74
59055;BME280;44845;51.444;7.460;2022-10-28T02:39:48;99981.13;;;17.08;66.66
59055;BME280;44845;51.444;7.460;2022-10-28T02:42:37;99981.13;;;17.08;66.67
59055;BME280;44845;51.444;7.460;2022-10-28T02:45:12;99984.59;;;17.08;66.30
59055;BME280;44845;51.444;7.460;2022-10-28T02:47:44;99983.78;;;17.06;66.69
59055;BME280;44845;51.444;7.460;2022-10-28T02:50:16;99987.31;;;17.07;66.49
59055;BME280;44845;51.444;7.460;2022-10-28T02:52:45;99989.75;;;17.13;66.32
59055;BME280;44845;51.444;7.460;2022-10-28T02:55:13;99992.69;;;17.05;66.46
59055;BME280;44845;51.444;7.460;2022-10-28T02:57:43;99986.41;;;17.08;66.52
59055;BME280;44845;51.444;7.460;2022-10-28T03:00:18;99986.50;;;17.05;66.79
59055;BME280;44845;51.444;7.460;2022-10-28T03:02:44;99978.47;;;17.08;66.66
59055;BME280;44845;51.444;7.460;2022-10-28T03:05:09;99973.16;;;17.08;65.89
59055;BME280;44845;51.444;7.460;2022-10-28T03:07:35;99975.81;;;17.08;66.74
59055;BME280;44845;51.444;7.460;2022-10-28T03:10:00;99975.91;;;17.05;66.43
59055;BME280;44845;51.444;7.460;2022-10-28T03:12:25;99972.31;;;17.06;66.42
59055;BME280;44845;51.444;7.460;2022-10-28T03:14:51;99966.22;;;17.04;66.21
59055;BME280;44845;51.444;7.460;2022-10-28T03:17:16;99963.69;;;17.00;66.65
59055;BME280;44845;51.444;7.460;2022-10-28T03:19:41;99964.59;;;16.99;66.44
59055;BME280;44845;51.444;7.460;2022-10-28T03:22:07;99966.28;;;17.02;66.80
59055;BME280;44845;51.444;7.460;2022-10-28T03:24:32;99963.69;;;17.00;66.63
59055;BME280;44845;51.444;7.460;2022-10-28T03:26:58;99955.59;;;17.05;66.70
59055;BME280;44845;51.444;7.460;2022-10-28T03:29:24;99954.78;;;17.03;66.23
59055;BME280;44845;51.444;7.460;2022-10-28T03:31:49;99951.25;;;17.03;66.72
59055;BME280;44845;51.444;7.460;2022-10-28T03:34:14;99953.84;;;17.04;66.93
59055;BME280;44845;51.444;7.460;2022-10-28T03:36:40;99954.81;;;17.02;66.75
59055;BME280;44845;51.444;7.460;2022-10-28T03:39:05;99947.94;;;16.96;66.92
59055;BME280;44845;51.444;7.460;2022-10-28T03:41:30;99945.34;;;16.94;67.50
59055;BME280;44845;51.444;7.460;2022-10-28T03:43:56;99949.06;;;16.88;67.24
59055;BME280;44845;51.444;7.460;2022-10-28T03:46:21;99956.94;;;16.90;67.17
59055;BME280;44845;51.444;7.460;2022-10-28T03:48:46;99951.66;;;16.90;66.52
59055;BME280;44845;51.444;7.460;2022-10-28T03:51:12;99947.25;;;16.89;67.02
59055;BME280;44845;51.444;7.460;2022-10-28T03:53:37;99946.34;;;16.90;66.89
59055;BME280;44845;51.444;7.460;2022-10-28T03:56:03;99949.06;;;16.88;66.95
59055;BME280;44845;51.444;7.460;2022-10-28T03:58:29;99949.00;;;16.90;67.58
59055;BME280;44845;51.444;7.460;2022-10-28T04:00:55;99954.38;;;16.88;67.33
59055;BME280;44845;51.444;7.460;2022-10-28T04:03:21;99948.38;;;16.82;67.73
59055;BME280;44845;51.444;7.460;2022-10-28T04:05:48;99944.91;;;16.80;67.86
59055;BME280;44845;51.444;7.460;2022-10-28T04:08:14;99939.53;;;16.83;68.14
59055;BME280;44845;51.444;7.460;2022-10-28T04:10:40;99934.41;;;16.76;68.28
59055;BME280;44845;51.444;7.460;2022-10-28T04:13:06;99939.72;;;16.76;68.15
59055;BME280;44845;51.444;7.460;2022-10-28T04:15:31;99940.69;;;16.74;68.64
59055;BME280;44845;51.444;7.460;2022-10-28T04:17:57;99939.78;;;16.75;68.55
59055;BME280;44845;51.444;7.460;2022-10-28T04:20:23;99934.63;;;16.70;68.73
59055;BME280;44845;51.444;7.460;2022-10-28T04:22:48;99936.38;;;16.71;68.17
59055;BME280;44845;51.444;7.460;2022-10-28T04:25:14;99929.44;;;16.67;68.95
59055;BME280;44845;51.444;7.460;2022-10-28T04:27:39;99924.19;;;16.65;68.51
59055;BME280;44845;51.444;7.460;2022-10-28T04:30:05;99917.22;;;16.63;68.73
59055;BME280;44845;51.444;7.460;2022-10-28T04:32:31;99917.31;;;16.60;69.15
59055;BME280;44845;51.444;7.460;2022-10-28T04:34:56;99921.72;;;16.59;69.33
59055;BME280;44845;51.444;7.460;2022-10-28T04:37:22;99927.00;;;16.59;68.78
59055;BME280;44845;51.444;7.460;2022-10-28T04:39:47;99928.84;;;16.57;68.89
59055;BME280;44845;51.444;7.460;2022-10-28T04:42:12;99931.47;;;16.59;68.95
59055;BME280;44845;51.444;7.460;2022-10-28T04:44:38;99935.09;;;16.54;69.28
59055;BME280;44845;51.444;7.460;2022-10-28T04:47:03;99922.69;;;16.57;69.27
59055;BME280;44845;51.444;7.460;2022-10-28T04:49:28;99934.25;;;16.54;69.51
59055;BME280;44845;51.444;7.460;2022-10-28T04:51:54;99933.41;;;16.53;69.38
59055;BME280;44845;51.444;7.460;2022-10-28T04:54:19;99930.78;;;16.52;69.55
59055;BME280;44845;51.444;7.460;2022-10-28T04:56:44;99937.81;;;16.53;69.41
59055;BME280;44845;51.444;7.460;2022-10-28T04:59:10;99934.28;;;16.52;69.79
59055;BME280;44845;51.444;7.460;2022-10-28T05:01:35;99940.41;;;16.54;68.99
59055;BME280;44845;51.444;7.460;2022-10-28T05:04:01;99935.22;;;16.51;69.11
59055;BME280;44845;51.444;7.460;2022-10-28T05:06:26;99933.41;;;16.53;69.25
59055;BME280;44845;51.444;7.460;2022-10-28T05:08:52;99940.22;;;16.61;69.38
59055;BME280;44845;51.444;7.460;2022-10-28T05:11:17;99935.03;;;16.58;69.19
59055;BME280;44845;51.444;7.460;2022-10-28T05:13:42;99928.28;;;16.47;69.62
59055;BME280;44845;51.444;7.460;2022-10-28T05:16:08;99930.75;;;16.53;69.54
59055;BME280;44845;51.444;7.460;2022-10-28T05:18:33;99934.34;;;16.51;69.52
59055;BME280;44845;51.444;7.460;2022-10-28T05:20:58;99937.72;;;16.56;69.66
59055;BME280;44845;51.444;7.460;2022-10-28T05:23:24;99935.09;;;16.54;69.61
59055;BME280;44845;51.444;7.460;2022-10-28T05:25:50;99934.34;;;16.51;69.75
59055;BME280;44845;51.444;7.460;2022-10-28T05:28:16;99940.47;;;16.53;69.92
59055;BME280;44845;51.444;7.460;2022-10-28T05:30:42;99936.22;;;16.47;69.71
59055;BME280;44845;51.444;7.460;2022-10-28T05:33:07;99935.31;;;16.48;70.12
59055;BME280;44845;51.444;7.460;2022-10-28T05:35:34;99940.56;;;16.50;69.79
59055;BME280;44845;51.444;7.460;2022-10-28T05:38:00;99945.84;;;16.50;69.95
59055;BME280;44845;51.444;7.460;2022-10-28T05:40:25;99937.75;;;16.54;69.75
59055;BME280;44845;51.444;7.460;2022-10-28T05:42:51;99945.81;;;16.51;69.86
59055;BME280;44845;51.444;7.460;2022-10-28T05:45:16;99943.97;;;16.53;69.93
59055;BME280;44845;51.444;7.460;2022-10-28T05:47:46;99943.97;;;16.53;69.93
59055;BME280;44845;51.444;7.460;2022-10-28T05:50:13;99944.06;;;16.50;70.35
59055;BME280;44845;51.444;7.460;2022-10-28T05:52:44;99953.78;;;16.50;70.67
59055;BME280;44845;51.444;7.460;2022-10-28T05:55:09;99954.75;;;16.47;70.23
59055;BME280;44845;51.444;7.460;2022-10-28T05:57:35;99949.28;;;16.53;70.09
59055;BME280;44845;51.444;7.460;2022-10-28T06:00:01;99944.16;;;16.47;70.36
59055;BME280;44845;51.444;7.460;2022-10-28T06:02:26;99949.56;;;16.44;70.62
59055;BME280;44845;51.444;7.460;2022-10-28T06:04:51;99953.03;;;16.46;70.45
59055;BME280;44845;51.444;7.460;2022-10-28T06:07:17;99947.72;;;16.46;70.25
59055;BME280;44845;51.444;7.460;2022-10-28T06:09:42;99961.88;;;16.45;70.86
59055;BME280;44845;51.444;7.460;2022-10-28T06:12:07;99964.38;;;16.50;70.10
59055;BME280;44845;51.444;7.460;2022-10-28T06:14:33;99962.53;;;16.52;70.49
59055;BME280;44845;51.444;7.460;2022-10-28T06:16:58;99963.50;;;16.49;70.60
59055;BME280;44845;51.444;7.460;2022-10-28T06:19:24;99947.63;;;16.49;71.06
59055;BME280;44845;51.444;7.460;2022-10-28T06:21:49;99952.75;;;16.55;70.54
59055;BME280;44845;51.444;7.460;2022-10-28T06:24:14;99967.75;;;16.55;70.63
59055;BME280;44845;51.444;7.460;2022-10-28T06:26:40;99963.47;;;16.51;70.54
59055;BME280;44845;51.444;7.460;2022-10-28T06:29:05;99955.28;;;16.59;70.06
59055;BME280;44845;51.444;7.460;2022-10-28T06:31:30;99956.03;;;16.64;70.13
59055;BME280;44845;51.444;7.460;2022-10-28T06:33:57;99957.94;;;16.59;69.92
59055;BME280;44845;51.444;7.460;2022-10-28T06:36:22;99965.03;;;16.57;70.28
59055;BME280;44845;51.444;7.460;2022-10-28T06:38:48;99964.06;;;16.59;70.43
59055;BME280;44845;51.444;7.460;2022-10-28T06:41:16;99967.56;;;16.61;70.20
59055;BME280;44845;51.444;7.460;2022-10-28T06:43:42;99969.25;;;16.64;70.21
59055;BME280;44845;51.444;7.460;2022-10-28T06:46:07;99973.72;;;16.62;70.04
59055;BME280;44845;51.444;7.460;2022-10-28T06:48:32;99964.06;;;16.59;70.30
59055;BME280;44845;51.444;7.460;2022-10-28T06:50:58;99964.88;;;16.63;70.64
59055;BME280;44845;51.444;7.460;2022-10-28T06:53:24;99968.53;;;16.59;70.58
59055;BME280;44845;51.444;7.460;2022-10-28T06:55:53;99972.75;;;16.64;70.59
59055;BME280;44845;51.444;7.460;2022-10-28T06:58:19;99970.06;;;16.66;70.87
59055;BME280;44845;51.444;7.460;2022-10-28T07:00:45;99977.19;;;16.64;70.74
59055;BME280;44845;51.444;7.460;2022-10-28T07:03:10;99977.19;;;16.64;71.00
59055;BME280;44845;51.444;7.460;2022-10-28T07:05:35;99972.00;;;16.61;71.22
59055;BME280;44845;51.444;7.460;2022-10-28T07:08:01;99973.72;;;16.62;71.20
59055;BME280;44845;51.444;7.460;2022-10-28T07:10:26;99992.97;;;16.67;71.55
59055;BME280;44845;51.444;7.460;2022-10-28T07:12:52;99986.94;;;16.62;71.04
59055;BME280;44845;51.444;7.460;2022-10-28T07:15:17;99983.34;;;16.64;71.61
59055;BME280;44845;51.444;7.460;2022-10-28T07:17:43;99997.50;;;16.63;71.79
59055;BME280;44845;51.444;7.460;2022-10-28T07:20:09;99999.03;;;16.71;71.75
59055;BME280;44845;51.444;7.460;2022-10-28T07:22:34;100000.88;;;16.69;71.76
59055;BME280;44845;51.444;7.460;2022-10-28T07:24:59;99997.28;;;16.71;71.66
59055;BME280;44845;51.444;7.460;2022-10-28T07:27:25;100010.59;;;16.68;71.99
59055;BME280;44845;51.444;7.460;2022-10-28T07:29:50;100008.78;;;16.70;71.69
59055;BME280;44845;51.444;7.460;2022-10-28T07:32:15;100010.50;;;16.71;71.71
59055;BME280;44845;51.444;7.460;2022-10-28T07:34:41;100011.31;;;16.73;71.26
59055;BME280;44845;51.444;7.460;2022-10-28T07:37:06;100003.38;;;16.73;71.58
59055;BME280;44845;51.444;7.460;2022-10-28T07:39:32;100002.38;;;16.77;71.45
59055;BME280;44845;51.444;7.460;2022-10-28T07:41:57;99997.78;;;16.83;71.05
59055;BME280;44845;51.444;7.460;2022-10-28T07:44:22;99996.16;;;16.79;71.75
59055;BME280;44845;51.444;7.460;2022-10-28T07:46:48;99998.69;;;16.82;72.02
59055;BME280;44845;51.444;7.460;2022-10-28T07:49:14;99993.38;;;16.83;72.37
59055;BME280;44845;51.444;7.460;2022-10-28T07:51:39;100003.00;;;16.86;71.60
59055;BME280;44845;51.444;7.460;2022-10-28T07:54:05;100014.28;;;16.91;71.38
59055;BME280;44845;51.444;7.460;2022-10-28T07:56:30;100008.28;;;16.86;72.24
59055;BME280;44845;51.444;7.460;2022-10-28T07:58:55;100008.97;;;16.93;71.81
59055;BME280;44845;51.444;7.460;2022-10-28T08:01:21;100013.38;;;16.92;71.99
59055;BME280;44845;51.444;7.460;2022-10-28T08:03:46;100013.38;;;16.92;71.42
59055;BME280;44845;51.444;7.460;2022-10-28T08:06:14;100011.59;;;16.93;72.30
59055;BME280;44845;51.444;7.460;2022-10-28T08:08:42;100011.41;;;16.99;72.02
59055;BME280;44845;51.444;7.460;2022-10-28T08:11:13;100011.41;;;16.99;71.79
59055;BME280;44845;51.444;7.460;2022-10-28T08:13:39;100006.81;;;17.04;72.16
59055;BME280;44845;51.444;7.460;2022-10-28T08:16:04;100011.06;;;17.10;72.23
59055;BME280;44845;51.444;7.460;2022-10-28T08:18:30;100013.72;;;17.10;71.79
59055;BME280;44845;51.444;7.460;2022-10-28T08:20:58;100006.63;;;17.10;71.39
59055;BME280;44845;51.444;7.460;2022-10-28T08:23:23;100013.66;;;17.11;71.23
59055;BME280;44845;51.444;7.460;2022-10-28T08:25:50;100014.34;;;17.18;71.06
59055;BME280;44845;51.444;7.460;2022-10-28T08:28:16;100017.06;;;17.17;71.76
59055;BME280;44845;51.444;7.460;2022-10-28T08:30:42;100008.19;;;17.18;71.54
59055;BME280;44845;51.444;7.460;2022-10-28T08:33:07;100007.28;;;17.19;71.78
59055;BME280;44845;51.444;7.460;2022-10-28T08:35:32;100020.50;;;17.20;72.10
59055;BME280;44845;51.444;7.460;2022-10-28T08:37:59;100010.72;;;17.21;71.97
59055;BME280;44845;51.444;7.460;2022-10-28T08:40:48;100012.53;;;17.20;71.04
59055;BME280;44845;51.444;7.460;2022-10-28T08:46:14;100010.69;;;17.22;71.83
59055;BME280;44845;51.444;7.460;2022-10-28T08:48:44;100010.69;;;17.22;71.79
59055;BME280;44845;51.444;7.460;2022-10-28T08:51:23;100001.78;;;17.25;72.45
59055;BME280;44845;51.444;7.460;2022-10-28T08:53:56;99992.97;;;17.25;72.64
59055;BME280;44845;51.444;7.460;2022-10-28T08:56:29;99981.56;;;17.21;72.41
59055;BME280;44845;51.444;7.460;2022-10-28T08:58:57;99996.72;;;17.17;71.92
59055;BME280;44845;51.444;7.460;2022-10-28T09:01:45;99982.53;;;17.18;72.06
59055;BME280;44845;51.444;7.460;2022-10-28T09:04:38;99986.13;;;17.17;71.94
59055;BME280;44845;51.444;7.460;2022-10-28T09:07:04;99979.09;;;17.16;72.47
59055;BME280;44845;51.444;7.460;2022-10-28T09:09:33;99985.25;;;17.17;71.41
59055;BME280;44845;51.444;7.460;2022-10-28T09:12:26;99986.13;;;17.17;72.14
59055;BME280;44845;51.444;7.460;2022-10-28T09:15:04;99979.00;;;17.19;71.92
59055;BME280;44845;51.444;7.460;2022-10-28T09:17:56;99976.28;;;17.21;72.37
59055;BME280;44845;51.444;7.460;2022-10-28T09:20:31;99982.44;;;17.21;72.40
59055;BME280;44845;51.444;7.460;2022-10-28T09:23:09;99979.91;;;17.18;72.38
59055;BME280;44845;51.444;7.460;2022-10-28T09:28:46;99970.81;;;17.26;72.55
59055;BME280;44845;51.444;7.460;2022-10-28T09:37:07;99962.78;;;17.29;71.21
59055;BME280;44845;51.444;7.460;2022-10-28T09:39:42;99967.97;;;17.32;69.97
59055;BME280;44845;51.444;7.460;2022-10-28T09:42:13;99969.69;;;17.33;70.47
59055;BME280;44845;51.444;7.460;2022-10-28T09:44:53;99969.28;;;17.45;70.27
59055;BME280;44845;51.444;7.460;2022-10-28T09:47:25;99975.44;;;17.46;70.35
59055;BME280;44845;51.444;7.460;2022-10-28T09:49:55;99967.22;;;17.54;70.11
59055;BME280;44845;51.444;7.460;2022-10-28T09:52:29;99967.31;;;17.51;70.31
59055;BME280;44845;51.444;7.460;2022-10-28T09:54:56;99963.44;;;17.61;70.19
59055;BME280;44845;51.444;7.460;2022-10-28T09:57:28;99966.91;;;17.63;69.57
59055;BME280;44845;51.444;7.460;2022-10-28T09:59:54;99972.13;;;17.65;69.87
59055;BME280;44845;51.444;7.460;2022-10-28T10:02:29;99970.34;;;17.65;69.97
59055;BME280;44845;51.444;7.460;2022-10-28T10:04:58;99975.31;;;17.75;70.08
59055;BME280;44845;51.444;7.460;2022-10-28T10:07:34;99970.03;;;17.75;69.62
59055;BME280;44845;51.444;7.460;2022-10-28T10:10:06;99978.66;;;17.82;69.41
59055;BME280;44845;51.444;7.460;2022-10-28T10:12:35;99977.06;;;17.76;69.54
59055;BME280;44845;51.444;7.460;2022-10-28T10:15:04;99966.00;;;17.88;69.72
59055;BME280;44845;51.444;7.460;2022-10-28T10:17:39;99971.22;;;17.92;68.89
59055;BME280;44845;51.444;7.460;2022-10-28T10:20:14;99971.09;;;17.95;70.36
59055;BME280;44845;51.444;7.460;2022-10-28T10:22:44;99979.75;;;18.00;70.16
59055;BME280;44845;51.444;7.460;2022-10-28T10:30:18;99974.88;;;18.11;68.16
59055;BME280;44845;51.444;7.460;2022-10-28T10:32:46;99985.56;;;18.10;68.56
59055;BME280;44845;51.444;7.460;2022-10-28T10:37:41;99980.91;;;18.17;68.62
59055;BME280;44845;51.444;7.460;2022-10-28T10:40:21;99984.50;;;18.16;69.66
59055;BME280;44845;51.444;7.460;2022-10-28T10:42:48;99980.84;;;18.18;69.50
59055;BME280;44845;51.444;7.460;2022-10-28T10:47:39;99983.06;;;18.31;69.14
59055;BME280;44845;51.444;7.460;2022-10-28T10:50:27;99979.56;;;18.30;69.11
59055;BME280;44845;51.444;7.460;2022-10-28T10:52:56;99976.66;;;18.37;67.13
59055;BME280;44845;51.444;7.460;2022-10-28T10:55:49;99978.03;;;18.47;67.38
59055;BME280;44845;51.444;7.460;2022-10-28T10:58:16;99971.91;;;18.45;67.46
59055;BME280;44845;51.444;7.460;2022-10-28T11:01:03;99980.75;;;18.45;67.29
59055;BME280;44845;51.444;7.460;2022-10-28T11:03:33;99972.03;;;18.42;66.89
59055;BME280;44845;51.444;7.460;2022-10-28T11:06:01;99971.13;;;18.43;68.36
59055;BME280;44845;51.444;7.460;2022-10-28T11:08:36;99966.59;;;18.45;67.15
59055;BME280;44845;51.444;7.460;2022-10-28T11:11:07;99959.38;;;18.49;67.15
59055;BME280;44845;51.444;7.460;2022-10-28T11:13:36;99958.38;;;18.51;67.72
59055;BME280;44845;51.444;7.460;2022-10-28T11:16:06;99954.63;;;18.57;66.47
59055;BME280;44845;51.444;7.460;2022-10-28T11:18:42;99949.25;;;18.59;67.01
59055;BME280;44845;51.444;7.460;2022-10-28T11:21:18;99957.22;;;18.59;67.60
59055;BME280;44845;51.444;7.460;2022-10-28T11:24:00;99948.88;;;18.68;66.34
59055;BME280;44845;51.444;7.460;2022-10-28T11:26:31;99941.53;;;18.75;66.29
59055;BME280;44845;51.444;7.460;2022-10-28T11:29:10;99936.91;;;18.80;66.20
59055;BME280;44845;51.444;7.460;2022-10-28T11:37:54;99926.00;;;19.09;64.62
59055;BME280;44845;51.444;7.460;2022-10-28T11:40:29;99930.06;;;18.95;66.33
59055;BME280;44845;51.444;7.460;2022-10-28T11:43:19;99928.25;;;18.97;66.19
59055;BME280;44845;51.444;7.460;2022-10-28T11:46:17;99926.22;;;19.02;66.17
59055;BME280;44845;51.444;7.460;2022-10-28T11:49:05;99925.38;;;19.02;66.11
59055;BME280;44845;51.444;7.460;2022-10-28T11:51:40;99925.63;;;19.18;64.13
59055;BME280;44845;51.444;7.460;2022-10-28T11:56:48;99928.00;;;19.24;64.77
59055;BME280;44845;51.444;7.460;2022-10-28T11:59:27;99920.03;;;19.24;64.45
59055;BME280;44845;51.444;7.460;2022-10-28T12:02:19;99921.63;;;19.29;65.74
59055;BME280;44845;51.444;7.460;2022-10-28T12:05:06;99914.59;;;19.28;65.19
59055;BME280;44845;51.444;7.460;2022-10-28T12:10:18;99915.53;;;19.27;66.23
59055;BME280;44845;51.444;7.460;2022-10-28T12:18:13;99909.03;;;19.34;65.52
59055;BME280;44845;51.444;7.460;2022-10-28T12:21:18;99905.50;;;19.33;66.23
59055;BME280;44845;51.444;7.460;2022-10-28T12:23:46;99902.09;;;19.30;65.46
59055;BME280;44845;51.444;7.460;2022-10-28T12:26:15;99892.78;;;19.40;64.92
59055;BME280;44845;51.444;7.460;2022-10-28T12:28:52;99900.97;;;19.35;64.87
59055;BME280;44845;51.444;7.460;2022-10-28T12:31:23;99892.53;;;19.46;64.38
59055;BME280;44845;51.444;7.460;2022-10-28T12:33:52;99895.97;;;19.49;64.00
59055;BME280;44845;51.444;7.460;2022-10-28T12:36:26;99899.28;;;19.54;63.98
59055;BME280;44845;51.444;7.460;2022-10-28T12:39:02;99899.94;;;19.59;63.60
59055;BME280;44845;51.444;7.460;2022-10-28T12:41:43;99887.44;;;19.61;63.00
59055;BME280;44845;51.444;7.460;2022-10-28T12:44:13;99897.56;;;19.53;63.83
59055;BME280;44845;51.444;7.460;2022-10-28T12:47:02;99890.78;;;19.45;64.21
59055;BME280;44845;51.444;7.460;2022-10-28T12:58:01;99877.72;;;19.60;64.37
59055;BME280;44845;51.444;7.460;2022-10-28T13:00:31;99882.59;;;19.50;63.65
59055;BME280;44845;51.444;7.460;2022-10-28T13:03:06;99872.09;;;19.47;64.11
59055;BME280;44845;51.444;7.460;2022-10-28T13:10:57;99872.97;;;19.47;63.62
59055;BME280;44845;51.444;7.460;2022-10-28T13:13:37;99875.34;;;19.54;62.63
59055;BME280;44845;51.444;7.460;2022-10-28T13:22:13;99869.38;;;19.49;62.93
59055;BME280;44845;51.444;7.460;2022-10-28T13:25:19;99870.97;;;19.53;63.15
59055;BME280;44845;51.444;7.460;2022-10-28T13:27:54;99870.75;;;19.57;62.83
59055;BME280;44845;51.444;7.460;2022-10-28T13:30:21;99867.44;;;19.52;63.50
59055;BME280;44845;51.444;7.460;2022-10-28T13:32:51;99865.50;;;19.56;62.88
59055;BME280;44845;51.444;7.460;2022-10-28T13:35:25;99867.38;;;19.54;62.99
59055;BME280;44845;51.444;7.460;2022-10-28T13:37:53;99870.97;;;19.53;62.53
59055;BME280;44845;51.444;7.460;2022-10-28T13:42:55;99864.19;;;19.45;64.01
59055;BME280;44845;51.444;7.460;2022-10-28T13:45:44;99873.09;;;19.44;64.47
59055;BME280;44845;51.444;7.460;2022-10-28T13:56:17;99893.91;;;19.55;63.84
59055;BME280;44845;51.444;7.460;2022-10-28T13:58:54;99881.72;;;19.50;64.55
59055;BME280;44845;51.444;7.460;2022-10-28T14:01:46;99898.84;;;19.44;63.49
59055;BME280;44845;51.444;7.460;2022-10-28T14:04:37;99908.59;;;19.43;63.83
59055;BME280;44845;51.444;7.460;2022-10-28T14:09:34;99909.72;;;19.38;64.01
59055;BME280;44845;51.444;7.460;2022-10-28T14:17:24;99900.56;;;19.45;64.16
59055;BME280;44845;51.444;7.460;2022-10-28T14:19:51;99903.16;;;19.46;63.33
59055;BME280;44845;51.444;7.460;2022-10-28T14:22:33;99906.75;;;19.45;63.41
59055;BME280;44845;51.444;7.460;2022-10-28T14:24:59;99908.59;;;19.43;64.38
59055;BME280;44845;51.444;7.460;2022-10-28T14:27:29;99914.06;;;19.40;65.55
59055;BME280;44845;51.444;7.460;2022-10-28T14:34:57;99920.78;;;19.28;65.77
59055;BME280;44845;51.444;7.460;2022-10-28T14:48:50;99938.84;;;19.20;65.84
59055;BME280;44845;51.444;7.460;2022-10-28T14:51:19;99940.66;;;19.19;66.37
59055;BME280;44845;51.444;7.460;2022-10-28T14:53:46;99937.03;;;19.20;66.89
59055;BME280;44845;51.444;7.460;2022-10-28T14:56:19;99941.50;;;19.20;66.94
59055;BME280;44845;51.444;7.460;2022-10-28T14:58:46;99943.31;;;19.19;66.75
59055;BME280;44845;51.444;7.460;2022-10-28T15:03:44;99946.00;;;19.18;67.16
59055;BME280;44845;51.444;7.460;2022-10-28T15:06:29;99953.66;;;19.26;66.70
59055;BME280;44845;51.444;7.460;2022-10-28T15:08:56;99964.41;;;19.22;66.38
59055;BME280;44845;51.444;7.460;2022-10-28T15:11:26;99972.75;;;19.13;66.54
59055;BME280;44845;51.444;7.460;2022-10-28T15:13:52;99971.34;;;19.04;66.81
59055;BME280;44845;51.444;7.460;2022-10-28T15:16:19;99976.00;;;18.99;67.33
59055;BME280;44845;51.444;7.460;2022-10-28T15:18:46;99977.91;;;18.95;67.43
59055;BME280;44845;51.444;7.460;2022-10-28T15:21:15;99970.19;;;18.89;68.20
59055;BME280;44845;51.444;7.460;2022-10-28T15:23:41;99976.56;;;18.85;68.15
59055;BME280;44845;51.444;7.460;2022-10-28T15:26:12;99971.25;;;18.85;68.52